sensor_id;sensor_type;location;lat;lon;timestamp;temperature;humidity
70807;DHT22;58882;52.170;5.386;2023-02-15T00:01:07;15.70;45.70
70807;DHT22;58882;52.170;5.386;2023-02-15T00:03:50;15.70;45.80
70807;DHT22;58882;52.170;5.386;2023-02-15T00:06:37;15.70;45.90
70807;DHT22;58882;52.170;5.386;2023-02-15T00:09:17;15.70;46.00
70807;DHT22;58882;52.170;5.386;2023-02-15T00:12:04;15.60;46.20
70807;DHT22;58882;52.170;5.386;2023-02-15T00:14:44;15.60;46.40
70807;DHT22;58882;52.170;5.386;2023-02-15T00:17:31;15.60;46.40
70807;DHT22;58882;52.170;5.386;2023-02-15T00:20:04;15.60;46.50
70807;DHT22;58882;52.170;5.386;2023-02-15T00:22:59;15.60;46.50
70807;DHT22;58882;52.170;5.386;2023-02-15T00:25:39;15.60;46.60
70807;DHT22;58882;52.170;5.386;2023-02-15T00:28:33;15.60;46.40
70807;DHT22;58882;52.170;5.386;2023-02-15T00:31:11;15.60;46.60
70807;DHT22;58882;52.170;5.386;2023-02-15T00:34:09;15.60;46.70
70807;DHT22;58882;52.170;5.386;2023-02-15T00:36:50;15.60;46.70
70807;DHT22;58882;52.170;5.386;2023-02-15T00:39:44;15.60;46.70
70807;DHT22;58882;52.170;5.386;2023-02-15T00:42:17;15.50;46.50
70807;DHT22;58882;52.170;5.386;2023-02-15T00:45:11;15.60;46.50
70807;DHT22;58882;52.170;5.386;2023-02-15T00:47:44;15.50;46.60
70807;DHT22;58882;52.170;5.386;2023-02-15T00:50:38;15.50;46.60
70807;DHT22;58882;52.170;5.386;2023-02-15T00:53:12;15.50;46.90
70807;DHT22;58882;52.170;5.386;2023-02-15T00:56:06;15.50;46.90
70807;DHT22;58882;52.170;5.386;2023-02-15T00:58:46;15.50;47.10
70807;DHT22;58882;52.170;5.386;2023-02-15T01:01:33;15.50;47.00
70807;DHT22;58882;52.170;5.386;2023-02-15T01:04:27;15.50;47.00
70807;DHT22;58882;52.170;5.386;2023-02-15T01:07:07;15.40;46.90
70807;DHT22;58882;52.170;5.386;2023-02-15T01:10:01;15.50;47.00
70807;DHT22;58882;52.170;5.386;2023-02-15T01:12:41;15.40;46.80
70807;DHT22;58882;52.170;5.386;2023-02-15T01:15:28;15.40;46.80
70807;DHT22;58882;52.170;5.386;2023-02-15T01:18:09;15.40;46.80
70807;DHT22;58882;52.170;5.386;2023-02-15T01:20:56;15.40;46.80
70807;DHT22;58882;52.170;5.386;2023-02-15T01:23:37;15.40;46.80
70807;DHT22;58882;52.170;5.386;2023-02-15T01:26:24;15.30;46.70
70807;DHT22;58882;52.170;5.386;2023-02-15T01:29:04;15.30;46.70
70807;DHT22;58882;52.170;5.386;2023-02-15T01:31:51;15.30;46.60
70807;DHT22;58882;52.170;5.386;2023-02-15T01:34:31;15.30;46.60
70807;DHT22;58882;52.170;5.386;2023-02-15T01:37:25;15.30;46.60
70807;DHT22;58882;52.170;5.386;2023-02-15T01:40:08;15.30;46.60
70807;DHT22;58882;52.170;5.386;2023-02-15T01:42:58;15.20;47.60
70807;DHT22;58882;52.170;5.386;2023-02-15T01:45:39;15.20;46.70
70807;DHT22;58882;52.170;5.386;2023-02-15T01:48:27;15.20;46.80
70807;DHT22;58882;52.170;5.386;2023-02-15T01:51:07;15.20;46.90
70807;DHT22;58882;52.170;5.386;2023-02-15T01:54:02;15.30;46.90
70807;DHT22;58882;52.170;5.386;2023-02-15T01:56:46;15.20;46.90
70807;DHT22;58882;52.170;5.386;2023-02-15T01:59:37;15.20;47.00
70807;DHT22;58882;52.170;5.386;2023-02-15T02:02:18;15.20;47.10
70807;DHT22;58882;52.170;5.386;2023-02-15T02:05:07;15.20;47.00
70807;DHT22;58882;52.170;5.386;2023-02-15T02:07:49;15.20;47.10
70807;DHT22;58882;52.170;5.386;2023-02-15T02:10:37;15.20;47.10
70807;DHT22;58882;52.170;5.386;2023-02-15T02:13:17;15.10;47.10
70807;DHT22;58882;52.170;5.386;2023-02-15T02:16:09;15.20;47.00
70807;DHT22;58882;52.170;5.386;2023-02-15T02:37:19;15.10;46.90
70807;DHT22;58882;52.170;5.386;2023-02-15T02:40:29;15.00;46.80
70807;DHT22;58882;52.170;5.386;2023-02-15T02:46:37;15.00;46.70
70807;DHT22;58882;52.170;5.386;2023-02-15T02:49:38;15.00;47.80
70807;DHT22;58882;52.170;5.386;2023-02-15T02:52:46;15.00;46.70
70807;DHT22;58882;52.170;5.386;2023-02-15T02:58:29;15.00;46.80
70807;DHT22;58882;52.170;5.386;2023-02-15T03:01:13;15.00;46.90
70807;DHT22;58882;52.170;5.386;2023-02-15T03:04:24;15.00;46.80
70807;DHT22;58882;52.170;5.386;2023-02-15T03:07:02;14.90;46.90
70807;DHT22;58882;52.170;5.386;2023-02-15T03:09:58;14.90;46.90
70807;DHT22;58882;52.170;5.386;2023-02-15T03:12:40;14.90;46.90
70807;DHT22;58882;52.170;5.386;2023-02-15T03:15:34;14.90;47.00
70807;DHT22;58882;52.170;5.386;2023-02-15T03:18:39;14.90;46.90
70807;DHT22;58882;52.170;5.386;2023-02-15T03:21:35;14.90;46.90
70807;DHT22;58882;52.170;5.386;2023-02-15T03:24:21;14.90;47.00
70807;DHT22;58882;52.170;5.386;2023-02-15T03:27:15;14.80;46.90
70807;DHT22;58882;52.170;5.386;2023-02-15T03:29:58;14.80;47.00
70807;DHT22;58882;52.170;5.386;2023-02-15T03:32:47;14.80;47.10
70807;DHT22;58882;52.170;5.386;2023-02-15T03:35:25;14.80;47.20
70807;DHT22;58882;52.170;5.386;2023-02-15T03:38:39;14.80;47.10
70807;DHT22;58882;52.170;5.386;2023-02-15T03:41:24;14.80;47.10
70807;DHT22;58882;52.170;5.386;2023-02-15T03:44:19;14.80;47.10
70807;DHT22;58882;52.170;5.386;2023-02-15T03:47:06;14.80;48.20
70807;DHT22;58882;52.170;5.386;2023-02-15T03:50:08;14.80;47.10
70807;DHT22;58882;52.170;5.386;2023-02-15T03:53:13;14.80;47.00
70807;DHT22;58882;52.170;5.386;2023-02-15T03:56:07;14.80;47.20
70807;DHT22;58882;52.170;5.386;2023-02-15T03:58:47;14.70;47.30
70807;DHT22;58882;52.170;5.386;2023-02-15T04:02:03;14.70;47.30
70807;DHT22;58882;52.170;5.386;2023-02-15T04:04:44;14.70;47.40
70807;DHT22;58882;52.170;5.386;2023-02-15T04:07:39;14.70;47.40
70807;DHT22;58882;52.170;5.386;2023-02-15T04:10:19;14.70;47.40
70807;DHT22;58882;52.170;5.386;2023-02-15T04:13:30;14.70;47.30
70807;DHT22;58882;52.170;5.386;2023-02-15T04:16:18;14.70;47.60
70807;DHT22;58882;52.170;5.386;2023-02-15T04:19:12;14.70;47.50
70807;DHT22;58882;52.170;5.386;2023-02-15T04:22:10;14.60;47.60
70807;DHT22;58882;52.170;5.386;2023-02-15T04:25:22;14.60;47.60
70807;DHT22;58882;52.170;5.386;2023-02-15T04:27:55;14.60;47.60
70807;DHT22;58882;52.170;5.386;2023-02-15T04:30:49;14.60;47.70
70807;DHT22;58882;52.170;5.386;2023-02-15T04:33:22;14.60;47.80
70807;DHT22;58882;52.170;5.386;2023-02-15T04:36:16;14.60;47.70
70807;DHT22;58882;52.170;5.386;2023-02-15T04:38:49;14.60;47.60
70807;DHT22;58882;52.170;5.386;2023-02-15T04:41:43;14.60;47.50
70807;DHT22;58882;52.170;5.386;2023-02-15T04:44:17;14.60;47.40
70807;DHT22;58882;52.170;5.386;2023-02-15T04:47:11;14.60;47.40
70807;DHT22;58882;52.170;5.386;2023-02-15T04:49:51;14.60;47.40
70807;DHT22;58882;52.170;5.386;2023-02-15T04:52:38;14.60;47.40
70807;DHT22;58882;52.170;5.386;2023-02-15T04:55:18;14.60;47.30
70807;DHT22;58882;52.170;5.386;2023-02-15T04:58:06;14.60;47.20
70807;DHT22;58882;52.170;5.386;2023-02-15T05:00:46;14.50;47.10
70807;DHT22;58882;52.170;5.386;2023-02-15T05:03:33;14.60;47.20
70807;DHT22;58882;52.170;5.386;2023-02-15T05:06:13;14.50;47.20
70807;DHT22;58882;52.170;5.386;2023-02-15T05:09:00;14.50;47.10
70807;DHT22;58882;52.170;5.386;2023-02-15T05:11:40;14.50;47.20
70807;DHT22;58882;52.170;5.386;2023-02-15T05:14:27;14.50;47.30
70807;DHT22;58882;52.170;5.386;2023-02-15T05:17:07;14.50;47.20
70807;DHT22;58882;52.170;5.386;2023-02-15T05:19:54;14.40;47.00
70807;DHT22;58882;52.170;5.386;2023-02-15T05:22:34;14.40;46.70
70807;DHT22;58882;52.170;5.386;2023-02-15T05:25:21;14.40;46.70
70807;DHT22;58882;52.170;5.386;2023-02-15T05:28:20;14.40;46.60
70807;DHT22;58882;52.170;5.386;2023-02-15T05:31:13;14.40;46.70
70807;DHT22;58882;52.170;5.386;2023-02-15T05:33:54;14.40;46.90
70807;DHT22;58882;52.170;5.386;2023-02-15T05:36:41;14.40;46.90
70807;DHT22;58882;52.170;5.386;2023-02-15T05:39:22;14.40;46.90
70807;DHT22;58882;52.170;5.386;2023-02-15T05:42:16;14.40;46.90
70807;DHT22;58882;52.170;5.386;2023-02-15T05:44:56;14.40;46.90
70807;DHT22;58882;52.170;5.386;2023-02-15T05:47:43;14.40;46.80
70807;DHT22;58882;52.170;5.386;2023-02-15T05:50:23;14.40;46.70
70807;DHT22;58882;52.170;5.386;2023-02-15T05:53:10;14.40;46.70
70807;DHT22;58882;52.170;5.386;2023-02-15T05:55:50;14.40;46.60
70807;DHT22;58882;52.170;5.386;2023-02-15T05:58:41;14.40;47.60
70807;DHT22;58882;52.170;5.386;2023-02-15T06:01:21;14.30;46.40
70807;DHT22;58882;52.170;5.386;2023-02-15T06:04:15;14.30;46.40
70807;DHT22;58882;52.170;5.386;2023-02-15T06:06:55;14.30;46.80
70807;DHT22;58882;52.170;5.386;2023-02-15T06:09:42;14.30;46.70
70807;DHT22;58882;52.170;5.386;2023-02-15T06:12:22;14.30;46.70
70807;DHT22;58882;52.170;5.386;2023-02-15T06:15:09;14.30;46.80
70807;DHT22;58882;52.170;5.386;2023-02-15T06:17:49;14.30;46.70
70807;DHT22;58882;52.170;5.386;2023-02-15T06:20:45;14.30;46.60
70807;DHT22;58882;52.170;5.386;2023-02-15T06:23:19;14.30;46.50
70807;DHT22;58882;52.170;5.386;2023-02-15T06:26:13;14.30;46.40
70807;DHT22;58882;52.170;5.386;2023-02-15T06:28:46;14.20;46.30
70807;DHT22;58882;52.170;5.386;2023-02-15T06:31:40;14.20;46.30
70807;DHT22;58882;52.170;5.386;2023-02-15T06:34:13;14.20;46.10
70807;DHT22;58882;52.170;5.386;2023-02-15T06:37:07;14.20;46.20
70807;DHT22;58882;52.170;5.386;2023-02-15T06:39:41;14.20;46.10
70807;DHT22;58882;52.170;5.386;2023-02-15T06:42:35;14.20;46.10
70807;DHT22;58882;52.170;5.386;2023-02-15T06:45:15;14.20;46.20
70807;DHT22;58882;52.170;5.386;2023-02-15T06:48:09;14.20;46.10
70807;DHT22;58882;52.170;5.386;2023-02-15T06:50:51;14.20;46.10
70807;DHT22;58882;52.170;5.386;2023-02-15T06:53:45;14.10;46.00
70807;DHT22;58882;52.170;5.386;2023-02-15T06:56:25;14.10;46.00
70807;DHT22;58882;52.170;5.386;2023-02-15T06:59:12;14.10;45.90
70807;DHT22;58882;52.170;5.386;2023-02-15T07:01:52;14.20;45.70
70807;DHT22;58882;52.170;5.386;2023-02-15T07:04:46;14.20;45.60
70807;DHT22;58882;52.170;5.386;2023-02-15T07:07:19;14.20;45.30
70807;DHT22;58882;52.170;5.386;2023-02-15T07:10:13;14.20;45.20
70807;DHT22;58882;52.170;5.386;2023-02-15T07:12:53;14.20;45.60
70807;DHT22;58882;52.170;5.386;2023-02-15T07:15:40;14.40;45.70
70807;DHT22;58882;52.170;5.386;2023-02-15T07:18:20;14.50;45.50
70807;DHT22;58882;52.170;5.386;2023-02-15T07:21:14;14.70;45.50
70807;DHT22;58882;52.170;5.386;2023-02-15T07:23:47;14.80;45.30
70807;DHT22;58882;52.170;5.386;2023-02-15T07:26:41;14.90;45.10
70807;DHT22;58882;52.170;5.386;2023-02-15T07:29:21;15.00;44.90
70807;DHT22;58882;52.170;5.386;2023-02-15T07:32:10;15.10;44.70
70807;DHT22;58882;52.170;5.386;2023-02-15T07:34:43;15.20;44.20
70807;DHT22;58882;52.170;5.386;2023-02-15T07:37:37;15.40;44.00
70807;DHT22;58882;52.170;5.386;2023-02-15T07:40:10;15.40;43.60
70807;DHT22;58882;52.170;5.386;2023-02-15T07:43:04;15.40;43.30
70807;DHT22;58882;52.170;5.386;2023-02-15T07:45:44;15.50;43.10
70807;DHT22;58882;52.170;5.386;2023-02-15T07:48:32;15.60;43.20
70807;DHT22;58882;52.170;5.386;2023-02-15T07:51:12;15.60;42.80
70807;DHT22;58882;52.170;5.386;2023-02-15T07:54:07;15.70;42.50
70807;DHT22;58882;52.170;5.386;2023-02-15T07:56:47;15.70;42.40
70807;DHT22;58882;52.170;5.386;2023-02-15T07:59:41;15.80;42.50
70807;DHT22;58882;52.170;5.386;2023-02-15T08:02:21;15.90;41.90
70807;DHT22;58882;52.170;5.386;2023-02-15T08:05:09;15.90;41.70
70807;DHT22;58882;52.170;5.386;2023-02-15T08:07:49;16.00;41.50
70807;DHT22;58882;52.170;5.386;2023-02-15T08:10:36;16.10;41.70
70807;DHT22;58882;52.170;5.386;2023-02-15T08:13:35;16.20;41.20
70807;DHT22;58882;52.170;5.386;2023-02-15T08:16:42;16.30;41.00
70807;DHT22;58882;52.170;5.386;2023-02-15T08:19:24;16.40;40.60
70807;DHT22;58882;52.170;5.386;2023-02-15T08:22:13;16.50;40.30
70807;DHT22;58882;52.170;5.386;2023-02-15T08:24:47;16.70;40.20
70807;DHT22;58882;52.170;5.386;2023-02-15T08:27:41;16.90;39.90
70807;DHT22;58882;52.170;5.386;2023-02-15T08:30:14;17.10;39.80
70807;DHT22;58882;52.170;5.386;2023-02-15T08:33:08;17.40;39.20
70807;DHT22;58882;52.170;5.386;2023-02-15T08:35:49;17.60;39.10
70807;DHT22;58882;52.170;5.386;2023-02-15T08:38:36;17.90;38.30
70807;DHT22;58882;52.170;5.386;2023-02-15T08:44:08;18.30;37.20
70807;DHT22;58882;52.170;5.386;2023-02-15T08:46:49;18.40;37.10
70807;DHT22;58882;52.170;5.386;2023-02-15T08:49:49;18.50;36.90
70807;DHT22;58882;52.170;5.386;2023-02-15T08:52:29;18.50;36.70
70807;DHT22;58882;52.170;5.386;2023-02-15T08:55:16;18.70;36.60
70807;DHT22;58882;52.170;5.386;2023-02-15T08:57:57;18.80;36.20
70807;DHT22;58882;52.170;5.386;2023-02-15T09:00:44;18.90;36.00
70807;DHT22;58882;52.170;5.386;2023-02-15T09:03:24;19.00;35.70
70807;DHT22;58882;52.170;5.386;2023-02-15T09:06:18;19.20;35.60
70807;DHT22;58882;52.170;5.386;2023-02-15T09:08:53;19.30;35.30
70807;DHT22;58882;52.170;5.386;2023-02-15T09:11:49;19.50;35.00
70807;DHT22;58882;52.170;5.386;2023-02-15T09:14:30;19.70;34.60
70807;DHT22;58882;52.170;5.386;2023-02-15T09:17:24;19.90;34.30
70807;DHT22;58882;52.170;5.386;2023-02-15T09:20:05;19.90;34.10
70807;DHT22;58882;52.170;5.386;2023-02-15T09:22:52;20.00;34.30
70807;DHT22;58882;52.170;5.386;2023-02-15T09:25:34;20.00;33.80
70807;DHT22;58882;52.170;5.386;2023-02-15T09:28:21;20.20;34.30
70807;DHT22;58882;52.170;5.386;2023-02-15T09:30:54;20.30;35.30
70807;DHT22;58882;52.170;5.386;2023-02-15T09:33:48;20.50;38.10
70807;DHT22;58882;52.170;5.386;2023-02-15T09:36:41;20.60;40.10
70807;DHT22;58882;52.170;5.386;2023-02-15T09:39:38;20.70;42.00
70807;DHT22;58882;52.170;5.386;2023-02-15T09:45:24;20.90;42.90
70807;DHT22;58882;52.170;5.386;2023-02-15T09:48:10;20.80;44.30
70807;DHT22;58882;52.170;5.386;2023-02-15T09:51:31;20.80;44.90
70807;DHT22;58882;52.170;5.386;2023-02-15T09:54:27;20.80;46.00
70807;DHT22;58882;52.170;5.386;2023-02-15T09:57:35;20.70;46.50
70807;DHT22;58882;52.170;5.386;2023-02-15T10:00:26;20.80;47.00
70807;DHT22;58882;52.170;5.386;2023-02-15T10:06:57;21.00;47.70
70807;DHT22;58882;52.170;5.386;2023-02-15T10:10:07;21.10;47.30
70807;DHT22;58882;52.170;5.386;2023-02-15T10:16:01;21.40;47.60
70807;DHT22;58882;52.170;5.386;2023-02-15T10:22:22;21.60;47.80
70807;DHT22;58882;52.170;5.386;2023-02-15T10:28:17;21.80;47.60
70807;DHT22;58882;52.170;5.386;2023-02-15T10:40:32;22.10;47.60
70807;DHT22;58882;52.170;5.386;2023-02-15T10:49:53;22.30;47.50
70807;DHT22;58882;52.170;5.386;2023-02-15T10:56:19;22.40;47.70
70807;DHT22;58882;52.170;5.386;2023-02-15T11:02:20;22.50;47.60
70807;DHT22;58882;52.170;5.386;2023-02-15T11:08:11;22.40;47.70
70807;DHT22;58882;52.170;5.386;2023-02-15T11:11:01;22.20;48.40
70807;DHT22;58882;52.170;5.386;2023-02-15T11:13:46;21.90;49.00
70807;DHT22;58882;52.170;5.386;2023-02-15T11:16:45;21.70;49.60
70807;DHT22;58882;52.170;5.386;2023-02-15T11:19:34;21.50;50.00
70807;DHT22;58882;52.170;5.386;2023-02-15T11:22:22;21.40;50.40
70807;DHT22;58882;52.170;5.386;2023-02-15T11:25:19;21.30;50.80
70807;DHT22;58882;52.170;5.386;2023-02-15T11:28:18;21.10;51.00
70807;DHT22;58882;52.170;5.386;2023-02-15T11:31:10;21.10;51.20
70807;DHT22;58882;52.170;5.386;2023-02-15T11:34:19;21.00;51.50
70807;DHT22;58882;52.170;5.386;2023-02-15T11:37:05;20.90;52.00
70807;DHT22;58882;52.170;5.386;2023-02-15T11:39:54;20.80;52.00
70807;DHT22;58882;52.170;5.386;2023-02-15T11:42:29;20.70;52.30
70807;DHT22;58882;52.170;5.386;2023-02-15T11:45:29;20.70;52.50
70807;DHT22;58882;52.170;5.386;2023-02-15T11:48:10;20.60;52.60
70807;DHT22;58882;52.170;5.386;2023-02-15T11:51:05;20.60;52.40
70807;DHT22;58882;52.170;5.386;2023-02-15T11:53:38;20.50;52.30
70807;DHT22;58882;52.170;5.386;2023-02-15T11:56:34;20.50;52.20
70807;DHT22;58882;52.170;5.386;2023-02-15T11:59:17;20.50;52.40
70807;DHT22;58882;52.170;5.386;2023-02-15T12:02:21;20.40;52.70
70807;DHT22;58882;52.170;5.386;2023-02-15T12:05:19;20.40;52.70
70807;DHT22;58882;52.170;5.386;2023-02-15T12:08:16;20.30;52.80
70807;DHT22;58882;52.170;5.386;2023-02-15T12:13:58;20.20;54.10
70807;DHT22;58882;52.170;5.386;2023-02-15T12:16:54;20.10;53.30
70807;DHT22;58882;52.170;5.386;2023-02-15T12:19:51;20.10;53.60
70807;DHT22;58882;52.170;5.386;2023-02-15T12:22:36;20.10;53.70
70807;DHT22;58882;52.170;5.386;2023-02-15T12:25:35;20.10;53.70
70807;DHT22;58882;52.170;5.386;2023-02-15T12:28:36;20.00;53.40
70807;DHT22;58882;52.170;5.386;2023-02-15T12:31:36;20.00;53.50
70807;DHT22;58882;52.170;5.386;2023-02-15T12:34:29;20.00;53.50
70807;DHT22;58882;52.170;5.386;2023-02-15T12:40:21;20.20;53.80
70807;DHT22;58882;52.170;5.386;2023-02-15T12:43:47;20.30;53.90
70807;DHT22;58882;52.170;5.386;2023-02-15T12:46:35;20.40;53.60
70807;DHT22;58882;52.170;5.386;2023-02-15T12:49:31;20.40;53.50
70807;DHT22;58882;52.170;5.386;2023-02-15T12:55:21;20.50;53.60
70807;DHT22;58882;52.170;5.386;2023-02-15T12:58:34;20.60;53.00
70807;DHT22;58882;52.170;5.386;2023-02-15T13:01:32;20.60;53.00
70807;DHT22;58882;52.170;5.386;2023-02-15T13:04:13;20.60;52.90
70807;DHT22;58882;52.170;5.386;2023-02-15T13:07:10;20.60;53.10
70807;DHT22;58882;52.170;5.386;2023-02-15T13:09:44;20.60;53.40
70807;DHT22;58882;52.170;5.386;2023-02-15T13:12:46;20.50;53.50
70807;DHT22;58882;52.170;5.386;2023-02-15T13:15:26;20.50;53.90
70807;DHT22;58882;52.170;5.386;2023-02-15T13:18:32;20.40;54.00
70807;DHT22;58882;52.170;5.386;2023-02-15T13:21:16;20.40;54.50
70807;DHT22;58882;52.170;5.386;2023-02-15T13:24:24;20.30;54.10
70807;DHT22;58882;52.170;5.386;2023-02-15T13:27:08;20.30;54.20
70807;DHT22;58882;52.170;5.386;2023-02-15T13:29:59;20.30;54.30
70807;DHT22;58882;52.170;5.386;2023-02-15T13:32:37;20.30;54.60
70807;DHT22;58882;52.170;5.386;2023-02-15T13:35:44;20.30;54.50
70807;DHT22;58882;52.170;5.386;2023-02-15T13:41:46;20.20;54.60
70807;DHT22;58882;52.170;5.386;2023-02-15T13:44:41;20.20;54.50
70807;DHT22;58882;52.170;5.386;2023-02-15T13:47:56;20.10;54.60
70807;DHT22;58882;52.170;5.386;2023-02-15T13:50:51;20.10;54.90
70807;DHT22;58882;52.170;5.386;2023-02-15T13:53:58;20.00;55.00
70807;DHT22;58882;52.170;5.386;2023-02-15T14:05:50;19.90;55.50
70807;DHT22;58882;52.170;5.386;2023-02-15T14:15:11;19.80;55.80
70807;DHT22;58882;52.170;5.386;2023-02-15T14:18:44;19.70;55.70
70807;DHT22;58882;52.170;5.386;2023-02-15T14:30:57;19.60;55.80
70807;DHT22;58882;52.170;5.386;2023-02-15T14:33:40;19.50;55.80
70807;DHT22;58882;52.170;5.386;2023-02-15T14:36:34;19.50;55.80
70807;DHT22;58882;52.170;5.386;2023-02-15T14:42:56;19.40;55.60
70807;DHT22;58882;52.170;5.386;2023-02-15T14:45:52;19.40;55.60
70807;DHT22;58882;52.170;5.386;2023-02-15T14:48:46;19.40;55.80
70807;DHT22;58882;52.170;5.386;2023-02-15T14:59:58;19.20;55.80
70807;DHT22;58882;52.170;5.386;2023-02-15T15:02:54;19.20;55.80
70807;DHT22;58882;52.170;5.386;2023-02-15T15:05:37;19.20;55.70
70807;DHT22;58882;52.170;5.386;2023-02-15T15:08:44;19.20;55.80
70807;DHT22;58882;52.170;5.386;2023-02-15T15:17:52;19.00;55.90
70807;DHT22;58882;52.170;5.386;2023-02-15T15:20:42;19.00;56.00
70807;DHT22;58882;52.170;5.386;2023-02-15T15:23:43;19.00;55.90
70807;DHT22;58882;52.170;5.386;2023-02-15T15:26:29;18.90;55.60
70807;DHT22;58882;52.170;5.386;2023-02-15T15:29:39;18.90;56.70
70807;DHT22;58882;52.170;5.386;2023-02-15T15:32:25;18.90;55.60
70807;DHT22;58882;52.170;5.386;2023-02-15T15:41:19;18.80;55.40
70807;DHT22;58882;52.170;5.386;2023-02-15T15:50:42;18.70;55.00
70807;DHT22;58882;52.170;5.386;2023-02-15T15:53:55;18.70;55.10
70807;DHT22;58882;52.170;5.386;2023-02-15T15:56:32;18.70;54.80
70807;DHT22;58882;52.170;5.386;2023-02-15T15:59:32;18.60;54.90
70807;DHT22;58882;52.170;5.386;2023-02-15T16:02:07;18.60;54.90
70807;DHT22;58882;52.170;5.386;2023-02-15T16:05:08;18.60;55.00
70807;DHT22;58882;52.170;5.386;2023-02-15T16:07:49;18.60;55.20
70807;DHT22;58882;52.170;5.386;2023-02-15T16:10:36;18.60;55.00
70807;DHT22;58882;52.170;5.386;2023-02-15T16:13:17;18.50;55.00
70807;DHT22;58882;52.170;5.386;2023-02-15T16:16:04;18.50;54.70
70807;DHT22;58882;52.170;5.386;2023-02-15T16:18:59;18.50;54.60
70807;DHT22;58882;52.170;5.386;2023-02-15T16:21:39;18.50;54.50
70807;DHT22;58882;52.170;5.386;2023-02-15T16:24:38;18.40;54.30
70807;DHT22;58882;52.170;5.386;2023-02-15T16:30:30;18.40;53.90
70807;DHT22;58882;52.170;5.386;2023-02-15T16:33:16;18.40;53.90
70807;DHT22;58882;52.170;5.386;2023-02-15T16:36:25;18.30;53.40
70807;DHT22;58882;52.170;5.386;2023-02-15T16:39:16;18.30;52.90
70807;DHT22;58882;52.170;5.386;2023-02-15T16:42:04;18.30;52.30
70807;DHT22;58882;52.170;5.386;2023-02-15T16:44:37;18.30;51.80
70807;DHT22;58882;52.170;5.386;2023-02-15T16:47:33;18.30;53.00
70807;DHT22;58882;52.170;5.386;2023-02-15T16:50:36;18.30;50.90
70807;DHT22;58882;52.170;5.386;2023-02-15T16:53:30;18.20;51.00
70807;DHT22;58882;52.170;5.386;2023-02-15T16:56:10;18.20;50.60
70807;DHT22;58882;52.170;5.386;2023-02-15T16:58:58;18.20;50.90
70807;DHT22;58882;52.170;5.386;2023-02-15T17:01:38;18.20;50.70
70807;DHT22;58882;52.170;5.386;2023-02-15T17:07:20;18.10;50.40
70807;DHT22;58882;52.170;5.386;2023-02-15T17:10:31;18.10;50.50
70807;DHT22;58882;52.170;5.386;2023-02-15T17:13:15;18.10;50.40
70807;DHT22;58882;52.170;5.386;2023-02-15T17:18:40;18.10;49.80
70807;DHT22;58882;52.170;5.386;2023-02-15T17:22:03;18.10;49.60
70807;DHT22;58882;52.170;5.386;2023-02-15T17:24:45;18.10;49.60
70807;DHT22;58882;52.170;5.386;2023-02-15T17:27:34;18.00;49.30
70807;DHT22;58882;52.170;5.386;2023-02-15T17:30:15;18.00;49.20
70807;DHT22;58882;52.170;5.386;2023-02-15T17:33:20;18.00;49.30
70807;DHT22;58882;52.170;5.386;2023-02-15T17:36:18;18.00;49.10
70807;DHT22;58882;52.170;5.386;2023-02-15T17:39:21;18.00;49.00
70807;DHT22;58882;52.170;5.386;2023-02-15T17:41:55;17.90;48.90
70807;DHT22;58882;52.170;5.386;2023-02-15T17:44:49;17.90;48.90
70807;DHT22;58882;52.170;5.386;2023-02-15T17:47:29;17.90;48.50
70807;DHT22;58882;52.170;5.386;2023-02-15T17:50:26;17.80;48.50
70807;DHT22;58882;52.170;5.386;2023-02-15T17:53:08;17.80;47.20
70807;DHT22;58882;52.170;5.386;2023-02-15T17:55:55;17.80;46.80
70807;DHT22;58882;52.170;5.386;2023-02-15T17:58:38;17.70;46.50
70807;DHT22;58882;52.170;5.386;2023-02-15T18:01:25;17.60;46.50
70807;DHT22;58882;52.170;5.386;2023-02-15T18:04:24;17.50;46.20
70807;DHT22;58882;52.170;5.386;2023-02-15T18:07:29;17.50;46.20
70807;DHT22;58882;52.170;5.386;2023-02-15T18:10:28;17.40;46.10
70807;DHT22;58882;52.170;5.386;2023-02-15T18:13:34;17.30;46.00
70807;DHT22;58882;52.170;5.386;2023-02-15T18:16:24;17.30;45.90
70807;DHT22;58882;52.170;5.386;2023-02-15T18:19:24;17.20;46.80
70807;DHT22;58882;52.170;5.386;2023-02-15T18:22:16;17.10;45.70
70807;DHT22;58882;52.170;5.386;2023-02-15T18:25:14;17.10;45.80
70807;DHT22;58882;52.170;5.386;2023-02-15T18:27:47;17.10;45.70
70807;DHT22;58882;52.170;5.386;2023-02-15T18:30:41;17.00;45.80
70807;DHT22;58882;52.170;5.386;2023-02-15T18:33:24;17.00;45.80
70807;DHT22;58882;52.170;5.386;2023-02-15T18:36:41;16.90;45.90
70807;DHT22;58882;52.170;5.386;2023-02-15T18:42:20;16.80;45.90
70807;DHT22;58882;52.170;5.386;2023-02-15T18:45:25;16.80;45.80
70807;DHT22;58882;52.170;5.386;2023-02-15T18:48:20;16.80;45.80
70807;DHT22;58882;52.170;5.386;2023-02-15T18:50:53;16.80;45.80
70807;DHT22;58882;52.170;5.386;2023-02-15T18:53:47;16.70;45.80
70807;DHT22;58882;52.170;5.386;2023-02-15T18:56:29;16.70;45.80
70807;DHT22;58882;52.170;5.386;2023-02-15T18:59:17;16.70;45.80
70807;DHT22;58882;52.170;5.386;2023-02-15T19:01:57;16.60;45.70
70807;DHT22;58882;52.170;5.386;2023-02-15T19:04:46;16.60;45.70
70807;DHT22;58882;52.170;5.386;2023-02-15T19:07:26;16.60;45.60
70807;DHT22;58882;52.170;5.386;2023-02-15T19:10:23;16.50;45.60
70807;DHT22;58882;52.170;5.386;2023-02-15T19:13:08;16.50;45.50
70807;DHT22;58882;52.170;5.386;2023-02-15T19:16:03;16.40;45.60
70807;DHT22;58882;52.170;5.386;2023-02-15T19:18:57;16.40;45.60
70807;DHT22;58882;52.170;5.386;2023-02-15T19:21:39;16.30;45.60
70807;DHT22;58882;52.170;5.386;2023-02-15T19:24:41;16.30;45.60
70807;DHT22;58882;52.170;5.386;2023-02-15T19:27:26;16.30;45.60
70807;DHT22;58882;52.170;5.386;2023-02-15T19:30:24;16.30;45.70
70807;DHT22;58882;52.170;5.386;2023-02-15T19:32:59;16.20;45.70
70807;DHT22;58882;52.170;5.386;2023-02-15T19:35:53;16.20;45.70
70807;DHT22;58882;52.170;5.386;2023-02-15T19:38:32;16.20;45.70
70807;DHT22;58882;52.170;5.386;2023-02-15T19:41:29;16.10;45.60
70807;DHT22;58882;52.170;5.386;2023-02-15T19:44:10;16.10;45.60
70807;DHT22;58882;52.170;5.386;2023-02-15T19:47:04;16.10;45.60
70807;DHT22;58882;52.170;5.386;2023-02-15T19:49:44;16.10;45.70
70807;DHT22;58882;52.170;5.386;2023-02-15T19:52:31;16.00;45.70
70807;DHT22;58882;52.170;5.386;2023-02-15T19:58:11;16.00;45.80
70807;DHT22;58882;52.170;5.386;2023-02-15T20:00:51;16.00;45.70
70807;DHT22;58882;52.170;5.386;2023-02-15T20:03:38;15.90;45.70
70807;DHT22;58882;52.170;5.386;2023-02-15T20:06:15;15.90;45.80
70807;DHT22;58882;52.170;5.386;2023-02-15T20:09:25;15.90;45.80
70807;DHT22;58882;52.170;5.386;2023-02-15T20:12:27;15.80;45.80
70807;DHT22;58882;52.170;5.386;2023-02-15T20:15:18;15.90;45.90
70807;DHT22;58882;52.170;5.386;2023-02-15T20:18:06;15.80;45.80
70807;DHT22;58882;52.170;5.386;2023-02-15T20:21:02;15.80;45.90